»·PEaware :: N7FJ KSJC-L52

N7FJ :: KSJC-L52

FLIGHT INFORMATION

Flight Status: Arrived
Operator: Privately registered:
United States
More flights under this callsign
Pilot: Zuqi C. (19949)
Aircraft: SOCATA TBM-900
(TBM9)
More flights by this aircraft type
Origin: KSJC Mineta San Jose Intl
United States
Destination: L52 Oceano Co
United States
More flights between these airports :: More routes between these airports
Route:
File this flight plan on PilotEdge
Remarks:
Altitude:
(Current/Filed)
17,500ft
Speed:
(Current/Filed)
290kts
Departed: 30-Jun-19 02:17 PM
Arrived: 30-Jun-19 03:04 PM
Distance/Time
Traveled:
150nm/0:47
Distance/Time
To Go:
Arrived

Flight Plot

Page will automatically refresh every two minutes.

Flight plan parsing failed; only flown route is shown


Map Options




Map Legend


Flown Route
Filed Route
Departure Airport
Arrival Airport
Navaid (VOR, NDB)
Fix

Horizontal Profiles

Position Reports

Time Latitude Longitude Heading Altitude Ground
Speed
30-Jun-19 13:51 37.360855 -121.932972 280 65ft 0kts
30-Jun-19 13:52 37.360855 -121.932972 280 65ft 0kts
30-Jun-19 13:53 37.360855 -121.932972 280 65ft 0kts
30-Jun-19 13:54 37.360855 -121.932972 280 65ft 0kts
30-Jun-19 13:55 37.360855 -121.932972 280 65ft 0kts
30-Jun-19 13:56 37.360855 -121.932972 280 65ft 0kts
30-Jun-19 13:56 37.360855 -121.932972 280 65ft 0kts
30-Jun-19 13:58 37.360855 -121.932972 280 65ft 0kts
30-Jun-19 13:59 37.360855 -121.932972 280 65ft 0kts
30-Jun-19 13:59 37.360855 -121.932972 280 65ft 0kts
30-Jun-19 14:00 37.360855 -121.932972 280 65ft 0kts
30-Jun-19 14:02 37.360855 -121.932972 280 65ft 0kts
30-Jun-19 14:02 37.360855 -121.932972 280 65ft 0kts
30-Jun-19 14:03 37.360855 -121.932972 280 65ft 0kts
30-Jun-19 14:04 37.360855 -121.932972 280 65ft 0kts
30-Jun-19 14:05 37.360855 -121.932972 280 65ft 0kts
30-Jun-19 14:06 37.360959 -121.933678 281 65ft 13kts
30-Jun-19 14:07 37.361520 -121.933520 49 65ft 0kts
30-Jun-19 14:08 37.361363 -121.932111 52 65ft 11kts
30-Jun-19 14:09 37.360686 -121.929499 136 65ft 11kts
30-Jun-19 14:10 37.357691 -121.926181 138 65ft 11kts
30-Jun-19 14:11 37.355044 -121.923331 138 65ft 0kts
30-Jun-19 14:12 37.352977 -121.921108 140 65ft 13kts
30-Jun-19 14:13 37.352196 -121.919737 56 65ft 0kts
30-Jun-19 14:14 37.352196 -121.919736 56 65ft 0kts
30-Jun-19 14:15 37.352912 -121.919210 325 65ft 16kts
30-Jun-19 14:16 37.371933 -121.940497 318 1413ft 123kts
30-Jun-19 14:17 37.353929 -121.958329 137 3710ft 158kts
30-Jun-19 14:18 37.321089 -121.920654 140 5865ft 170kts
30-Jun-19 14:19 37.276840 -121.881092 148 7060ft 199kts
30-Jun-19 14:20 37.227187 -121.854756 163 9018ft 197kts
30-Jun-19 14:21 37.175736 -121.859264 169 11081ft 196kts
30-Jun-19 14:22 37.122991 -121.839074 163 12931ft 201kts
30-Jun-19 14:23 37.069910 -121.813521 162 14567ft 209kts
30-Jun-19 14:24 37.015004 -121.785461 162 15982ft 219kts
30-Jun-19 14:25 36.957292 -121.755567 161 17520ft 236kts
30-Jun-19 14:26 36.889711 -121.720568 161 17517ft 280kts
30-Jun-19 14:27 36.816358 -121.682358 160 17505ft 289kts
30-Jun-19 14:28 36.741748 -121.643583 160 17499ft 291kts
30-Jun-19 14:29 36.667067 -121.604746 158 17498ft 292kts
30-Jun-19 14:30 36.602360 -121.541719 144 17503ft 295kts
30-Jun-19 14:31 36.538068 -121.477538 144 17504ft 295kts
30-Jun-19 14:32 36.473944 -121.413682 144 17544ft 293kts
30-Jun-19 14:33 36.409877 -121.350029 144 17585ft 294kts
30-Jun-19 14:34 36.346249 -121.286943 145 17580ft 294kts
30-Jun-19 14:35 36.282225 -121.223604 145 17581ft 294kts
30-Jun-19 14:36 36.218357 -121.160545 145 17573ft 294kts
30-Jun-19 14:37 36.154392 -121.097535 145 17555ft 292kts
30-Jun-19 14:38 36.090708 -121.034939 145 17530ft 290kts
30-Jun-19 14:39 36.027803 -120.973239 145 17517ft 288kts
30-Jun-19 14:40 35.965061 -120.911830 145 17516ft 286kts
30-Jun-19 14:41 35.902786 -120.851001 145 17516ft 285kts
30-Jun-19 14:42 35.840555 -120.790355 145 17511ft 284kts
30-Jun-19 14:43 35.775362 -120.726945 144 16031ft 301kts
30-Jun-19 14:44 35.710925 -120.664398 144 14316ft 294kts
30-Jun-19 14:45 35.641065 -120.626998 180 12274ft 261kts
30-Jun-19 14:46 35.569090 -120.626220 180 10256ft 263kts
30-Jun-19 14:47 35.495030 -120.625580 180 8270ft 265kts
30-Jun-19 14:48 35.422096 -120.624945 181 6375ft 257kts
30-Jun-19 14:49 35.352338 -120.624345 182 5032ft 246kts
30-Jun-19 14:50 35.285866 -120.623793 182 4275ft 233kts
30-Jun-19 14:51 35.221777 -120.623251 182 3767ft 227kts
30-Jun-19 14:52 35.160059 -120.622720 182 2611ft 211kts
30-Jun-19 14:53 35.101594 -120.622223 181 1113ft 209kts
30-Jun-19 14:54 35.058100 -120.636862 257 955ft 137kts
30-Jun-19 14:55 35.083073 -120.638025 37 980ft 140kts
30-Jun-19 14:56 35.080127 -120.605474 121 919ft 108kts
30-Jun-19 14:57 35.091082 -120.604137 295 387ft 83kts
30-Jun-19 14:58 35.104482 -120.627450 306 816ft 91kts
30-Jun-19 14:59 35.088175 -120.641110 137 1255ft 126kts
30-Jun-19 15:00 35.073242 -120.607827 122 1117ft 110kts
30-Jun-19 15:01 35.084729 -120.592525 315 636ft 83kts
30-Jun-19 15:02 35.096840 -120.613654 306 238ft 74kts
30-Jun-19 15:03 35.102692 -120.623982 32 17ft 5kts
30-Jun-19 15:04 35.103358 -120.624838 302 17ft 0kts
30-Jun-19 15:05 35.103358 -120.624838 302 17ft 0kts
30-Jun-19 15:06 35.103369 -120.624701 210 17ft 0kts
30-Jun-19 15:07 35.103369 -120.624701 210 17ft 0kts
30-Jun-19 15:08 35.103369 -120.624701 210 17ft 0kts
30-Jun-19 15:09 35.103369 -120.624701 210 17ft 0kts
30-Jun-19 15:10 35.103369 -120.624701 210 17ft 0kts
30-Jun-19 15:11 35.103369 -120.624701 210 17ft 0kts
30-Jun-19 15:12 35.103369 -120.624701 210 17ft 0kts
30-Jun-19 15:13 35.103369 -120.624701 210 17ft 0kts
30-Jun-19 15:14 35.103369 -120.624701 210 17ft 0kts
30-Jun-19 15:15 35.103369 -120.624701 210 17ft 0kts
30-Jun-19 15:16 35.103369 -120.624701 210 17ft 0kts
30-Jun-19 15:17 35.103369 -120.624701 210 17ft 0kts
30-Jun-19 15:18 35.103369 -120.624701 210 17ft 0kts

Navigation Log

Ident Type
Flight plan parsing failed, navigation log unavailable